createdAt,value
2018-03-31T00:00:13.132Z,993.29
2018-03-31T00:01:13.097Z,993.26
2018-03-31T00:02:13.084Z,993.26
2018-03-31T00:03:13.049Z,993.23
2018-03-31T00:04:13.022Z,993.24
2018-03-31T00:05:13.018Z,993.22
2018-03-31T00:06:12.971Z,993.24
2018-03-31T00:07:12.946Z,993.25
2018-03-31T00:08:12.917Z,993.26
2018-03-31T00:09:12.891Z,993.26
2018-03-31T00:10:12.877Z,993.28
2018-03-31T00:11:12.853Z,993.27
2018-03-31T00:12:12.855Z,993.27
2018-03-31T00:13:12.801Z,993.26
2018-03-31T00:14:12.772Z,993.24
2018-03-31T00:15:12.775Z,993.24
2018-03-31T00:16:12.714Z,993.27
2018-03-31T00:17:12.676Z,993.26
2018-03-31T00:18:12.690Z,993.19
2018-03-31T00:19:12.631Z,993.21
2018-03-31T00:20:12.616Z,993.23
2018-03-31T00:21:12.583Z,993.26
2018-03-31T00:22:12.557Z,993.28
2018-03-31T00:23:12.560Z,993.28
2018-03-31T00:24:12.531Z,993.26
2018-03-31T00:25:12.470Z,993.21
2018-03-31T00:26:12.455Z,993.22
2018-03-31T00:27:12.451Z,993.17
2018-03-31T00:28:12.389Z,993.21
2018-03-31T00:29:12.400Z,993.16
2018-03-31T00:30:12.373Z,993.18
2018-03-31T00:31:12.310Z,993.23
2018-03-31T00:32:12.310Z,993.25
2018-03-31T00:33:12.288Z,993.23
2018-03-31T00:34:12.231Z,993.32
2018-03-31T00:35:12.232Z,993.34
2018-03-31T00:36:12.186Z,993.35
2018-03-31T00:37:12.208Z,993.38
2018-03-31T00:38:12.149Z,993.36
2018-03-31T00:39:12.126Z,993.36
2018-03-31T00:40:12.135Z,993.34
2018-03-31T00:41:12.065Z,993.32
2018-03-31T00:42:12.045Z,993.33
2018-03-31T00:43:12.046Z,993.31
2018-03-31T00:44:11.988Z,993.32
2018-03-31T00:45:11.999Z,993.31
2018-03-31T00:46:11.968Z,993.31
2018-03-31T00:47:11.907Z,993.29
2018-03-31T00:48:11.882Z,993.29
2018-03-31T00:49:11.857Z,993.36
2018-03-31T00:50:11.822Z,993.41
2018-03-31T00:51:11.800Z,993.41
2018-03-31T00:52:11.820Z,993.39
2018-03-31T00:53:11.741Z,993.44
2018-03-31T00:54:11.721Z,993.40
2018-03-31T00:55:11.708Z,993.39
2018-03-31T00:56:11.662Z,993.34
2018-03-31T00:57:11.664Z,993.36
2018-03-31T00:58:11.605Z,993.34
2018-03-31T00:59:11.576Z,993.36
2018-03-31T01:00:11.579Z,993.35
2018-03-31T01:01:11.528Z,993.32
2018-03-31T01:02:11.492Z,993.31
2018-03-31T01:03:11.477Z,993.27
2018-03-31T01:04:11.479Z,993.26
2018-03-31T01:05:11.423Z,993.25
2018-03-31T01:06:11.406Z,993.26
2018-03-31T01:07:11.400Z,993.24
2018-03-31T01:08:11.336Z,993.25
2018-03-31T01:09:11.336Z,993.28
2018-03-31T01:10:11.313Z,993.28
2018-03-31T01:11:11.261Z,993.26
2018-03-31T01:12:11.252Z,993.29
2018-03-31T01:13:11.240Z,993.27
2018-03-31T01:14:11.228Z,993.26
2018-03-31T01:15:11.173Z,993.27
2018-03-31T01:16:11.145Z,993.24
2018-03-31T01:17:11.132Z,993.22
2018-03-31T01:18:11.099Z,993.21
2018-03-31T01:19:11.063Z,993.24
2018-03-31T01:20:11.097Z,993.28
2018-03-31T01:21:11.010Z,993.26
2018-03-31T01:22:10.984Z,993.24
2018-03-31T01:23:10.985Z,993.20
2018-03-31T01:24:10.927Z,993.21
2018-03-31T01:25:10.904Z,993.18
2018-03-31T01:26:10.918Z,993.18
2018-03-31T01:27:10.843Z,993.21
2018-03-31T01:28:10.803Z,993.21
2018-03-31T01:29:10.828Z,993.25
2018-03-31T01:30:10.763Z,993.23
2018-03-31T01:31:10.737Z,993.23
2018-03-31T01:32:10.737Z,993.22
2018-03-31T01:33:10.682Z,993.23
2018-03-31T01:34:10.696Z,993.17
2018-03-31T01:35:10.656Z,993.18
2018-03-31T01:36:18.584Z,993.17
2018-03-31T01:38:03.548Z,993.15
2018-03-31T01:39:03.453Z,993.14
2018-03-31T01:40:03.464Z,993.15
2018-03-31T01:41:03.427Z,993.11
2018-03-31T01:42:03.374Z,993.13
2018-03-31T01:43:03.377Z,993.12
2018-03-31T01:44:03.347Z,993.13
2018-03-31T01:45:03.310Z,993.14
2018-03-31T01:46:03.293Z,993.14
2018-03-31T01:47:03.267Z,993.09
2018-03-31T01:48:03.220Z,993.13
2018-03-31T01:49:03.193Z,993.11
2018-03-31T01:50:03.207Z,993.13
2018-03-31T01:51:03.139Z,993.18
2018-03-31T01:52:03.109Z,993.19
2018-03-31T01:53:03.080Z,993.17
2018-03-31T01:54:03.061Z,993.19
2018-03-31T01:55:03.049Z,993.19
2018-03-31T01:56:03.021Z,993.16
2018-03-31T01:57:05.498Z,993.19
2018-03-31T01:58:02.965Z,993.15
2018-03-31T01:59:02.945Z,993.14
2018-03-31T02:00:02.922Z,993.14
2018-03-31T02:01:02.883Z,993.16
2018-03-31T02:02:02.859Z,993.13
2018-03-31T02:03:02.862Z,993.15
2018-03-31T02:04:02.805Z,993.13
2018-03-31T02:05:02.801Z,993.12
2018-03-31T02:06:02.756Z,993.15
2018-03-31T02:07:02.721Z,993.09
2018-03-31T02:08:02.682Z,993.10
2018-03-31T02:09:02.716Z,993.10
2018-03-31T02:10:02.640Z,993.10
2018-03-31T02:11:02.623Z,993.09
2018-03-31T02:12:02.629Z,993.07
2018-03-31T02:13:02.561Z,993.06
2018-03-31T02:14:02.537Z,993.08
2018-03-31T02:15:02.543Z,993.04
2018-03-31T02:16:02.481Z,993.07
2018-03-31T02:17:02.454Z,993.05
2018-03-31T02:18:02.457Z,993.04
2018-03-31T02:19:02.399Z,993.01
2018-03-31T02:20:02.374Z,993.06
2018-03-31T02:21:02.380Z,993.02
2018-03-31T02:22:02.317Z,993.02
2018-03-31T02:23:02.274Z,992.99
2018-03-31T02:24:02.295Z,992.99
2018-03-31T02:25:02.238Z,993.02
2018-03-31T02:26:02.236Z,993.01
2018-03-31T02:27:02.185Z,992.97
2018-03-31T02:28:02.154Z,992.98
2018-03-31T02:29:02.126Z,992.95
2018-03-31T02:30:02.132Z,992.98
2018-03-31T02:31:02.075Z,992.99
2018-03-31T02:32:02.043Z,993.00
2018-03-31T02:33:02.023Z,992.99
2018-03-31T02:34:01.989Z,993.02
2018-03-31T02:35:01.971Z,993.04
2018-03-31T02:36:01.977Z,992.98
2018-03-31T02:37:01.913Z,993.01
2018-03-31T02:38:01.864Z,992.99
2018-03-31T02:39:01.882Z,992.95
2018-03-31T02:40:01.819Z,992.93
2018-03-31T02:41:01.802Z,992.89
2018-03-31T02:42:01.768Z,992.92
2018-03-31T02:43:01.741Z,992.88
2018-03-31T02:44:01.720Z,992.91
2018-03-31T02:45:01.712Z,992.90
2018-03-31T02:46:01.656Z,992.92
2018-03-31T02:47:01.644Z,992.86
2018-03-31T02:48:01.605Z,992.92
2018-03-31T02:49:01.577Z,992.91
2018-03-31T02:50:01.558Z,992.87
2018-03-31T02:51:01.526Z,992.88
2018-03-31T02:52:01.494Z,992.86
2018-03-31T02:53:01.483Z,992.86
2018-03-31T02:54:01.447Z,992.87
2018-03-31T02:55:01.407Z,992.87
2018-03-31T02:56:01.409Z,992.86
2018-03-31T02:57:01.363Z,992.86
2018-03-31T02:58:01.327Z,992.88
2018-03-31T02:59:01.296Z,992.85
2018-03-31T03:00:01.281Z,992.87
2018-03-31T03:01:01.243Z,992.87
2018-03-31T03:02:01.252Z,992.88
2018-03-31T03:03:01.199Z,992.88
2018-03-31T03:04:01.173Z,992.90
2018-03-31T03:05:01.179Z,992.90
2018-03-31T03:06:01.118Z,992.90
2018-03-31T03:07:01.085Z,992.92
2018-03-31T03:08:01.091Z,992.95
2018-03-31T03:09:01.040Z,992.97
2018-03-31T03:10:01.009Z,992.96
2018-03-31T03:11:01.012Z,992.97
2018-03-31T03:12:00.981Z,992.97
2018-03-31T03:13:00.924Z,992.98
2018-03-31T03:14:00.927Z,993.01
2018-03-31T03:15:00.915Z,993.00
2018-03-31T03:16:00.841Z,993.04
2018-03-31T03:17:00.846Z,993.01
2018-03-31T03:18:00.793Z,993.01
2018-03-31T03:19:00.763Z,993.05
2018-03-31T03:20:00.761Z,993.01
2018-03-31T03:21:00.712Z,993.05
2018-03-31T03:22:00.714Z,993.06
2018-03-31T03:23:00.682Z,993.05
2018-03-31T03:24:00.630Z,993.04
2018-03-31T03:25:00.605Z,993.07
2018-03-31T03:26:00.600Z,993.06
2018-03-31T03:27:00.607Z,993.04
2018-03-31T03:28:00.552Z,993.04
2018-03-31T03:29:00.523Z,993.06
2018-03-31T03:30:00.494Z,993.05
2018-03-31T03:31:00.509Z,993.06
2018-03-31T03:32:00.440Z,993.05
2018-03-31T03:33:00.414Z,993.07
2018-03-31T03:34:00.385Z,993.10
2018-03-31T03:35:00.355Z,993.08
2018-03-31T03:36:00.323Z,993.11
2018-03-31T03:37:00.306Z,993.08
2018-03-31T03:38:00.277Z,993.10
2018-03-31T03:39:00.218Z,993.10
2018-03-31T03:40:00.249Z,993.12
2018-03-31T03:41:00.187Z,993.13
2018-03-31T03:42:00.138Z,993.14
2018-03-31T03:43:00.168Z,993.19
2018-03-31T03:44:00.108Z,993.19
2018-03-31T03:45:00.084Z,993.26
2018-03-31T03:46:00.089Z,993.26
2018-03-31T03:47:00.026Z,993.27
2018-03-31T03:48:00.012Z,993.30
2018-03-31T03:48:59.998Z,993.33
2018-03-31T03:49:59.942Z,993.39
2018-03-31T03:50:59.903Z,993.41
2018-03-31T03:51:59.873Z,993.40
2018-03-31T03:52:59.851Z,993.40
2018-03-31T03:53:59.821Z,993.43
2018-03-31T03:54:59.787Z,993.39
2018-03-31T03:55:59.760Z,993.45
2018-03-31T03:56:59.735Z,993.45
2018-03-31T03:57:59.709Z,993.47
2018-03-31T03:58:59.688Z,993.52
2018-03-31T03:59:59.656Z,993.50
2018-03-31T04:00:59.633Z,993.55
2018-03-31T04:01:59.608Z,993.50
2018-03-31T04:02:59.571Z,993.50
2018-03-31T04:03:59.552Z,993.52
2018-03-31T04:04:59.520Z,993.52
2018-03-31T04:05:59.497Z,993.55
2018-03-31T04:06:59.494Z,993.56
2018-03-31T04:07:59.444Z,993.62
2018-03-31T04:08:59.409Z,993.60
2018-03-31T04:09:59.398Z,993.59
2018-03-31T04:10:59.368Z,993.57
2018-03-31T04:11:59.337Z,993.55
2018-03-31T04:12:59.309Z,993.55
2018-03-31T04:13:59.283Z,993.56
2018-03-31T04:14:59.249Z,993.54
2018-03-31T04:15:59.273Z,993.54
2018-03-31T04:16:59.210Z,993.54
2018-03-31T04:17:59.218Z,993.57
2018-03-31T04:18:59.168Z,993.57
2018-03-31T04:19:59.131Z,993.61
2018-03-31T04:20:59.112Z,993.59
2018-03-31T04:21:59.098Z,993.62
2018-03-31T04:22:59.047Z,993.67
2018-03-31T04:23:59.092Z,993.67
2018-03-31T04:24:59.000Z,993.68
2018-03-31T04:25:58.965Z,993.69
2018-03-31T04:26:58.971Z,993.68
2018-03-31T04:27:58.947Z,993.69
2018-03-31T04:28:58.884Z,993.70
2018-03-31T04:29:58.861Z,993.72
2018-03-31T04:30:58.852Z,993.71
2018-03-31T04:31:58.807Z,993.72
2018-03-31T04:32:58.777Z,993.69
2018-03-31T04:33:58.756Z,993.72
2018-03-31T04:34:58.717Z,993.72
2018-03-31T04:35:58.696Z,993.74
2018-03-31T04:36:58.691Z,993.72
2018-03-31T04:37:58.638Z,993.73
2018-03-31T04:38:58.620Z,993.73
2018-03-31T04:39:58.618Z,993.71
2018-03-31T04:40:58.555Z,993.71
2018-03-31T04:41:58.536Z,993.68
2018-03-31T04:42:58.529Z,993.71
2018-03-31T04:43:58.467Z,993.67
2018-03-31T04:44:58.477Z,993.67
2018-03-31T04:45:58.447Z,993.67
2018-03-31T04:46:58.391Z,993.68
2018-03-31T04:47:58.366Z,993.70
2018-03-31T04:48:58.342Z,993.66
2018-03-31T04:49:58.312Z,993.66
2018-03-31T04:50:58.268Z,993.69
2018-03-31T04:51:58.272Z,993.66
2018-03-31T04:52:58.237Z,993.67
2018-03-31T04:53:58.202Z,993.73
2018-03-31T04:54:58.188Z,993.77
2018-03-31T04:55:58.153Z,993.78
2018-03-31T04:56:58.107Z,993.80
2018-03-31T04:57:58.081Z,993.78
2018-03-31T04:58:58.059Z,993.80
2018-03-31T04:59:58.039Z,993.81
2018-03-31T05:00:58.043Z,993.82
2018-03-31T05:01:57.981Z,993.76
2018-03-31T05:02:57.961Z,993.79
2018-03-31T05:03:57.962Z,993.75
2018-03-31T05:04:57.893Z,993.78
2018-03-31T05:05:57.854Z,993.76
2018-03-31T05:06:57.878Z,993.72
2018-03-31T05:07:57.816Z,993.76
2018-03-31T05:08:57.800Z,993.74
2018-03-31T05:09:57.820Z,993.67
2018-03-31T05:10:57.735Z,993.71
2018-03-31T05:11:57.742Z,993.69
2018-03-31T05:12:57.713Z,993.65
2018-03-31T05:13:57.640Z,993.65
2018-03-31T05:14:57.715Z,993.66
2018-03-31T05:15:57.624Z,993.64
2018-03-31T05:16:57.591Z,993.67
2018-03-31T05:17:57.554Z,993.65
2018-03-31T05:18:57.555Z,993.66
2018-03-31T05:19:57.547Z,993.70
2018-03-31T05:20:57.463Z,993.67
2018-03-31T05:21:57.506Z,993.68
2018-03-31T05:22:57.405Z,993.71
2018-03-31T05:23:57.378Z,993.70
2018-03-31T05:24:57.361Z,993.70
2018-03-31T05:25:57.324Z,993.76
2018-03-31T05:26:57.282Z,993.71
2018-03-31T05:27:57.304Z,993.73
2018-03-31T05:28:57.251Z,993.71
2018-03-31T05:29:57.205Z,993.71
2018-03-31T05:30:57.194Z,993.72
2018-03-31T05:31:57.162Z,993.73
2018-03-31T05:32:57.112Z,993.69
2018-03-31T05:33:57.106Z,993.71
2018-03-31T05:34:57.078Z,993.69
2018-03-31T05:35:57.026Z,993.64
2018-03-31T05:36:57.043Z,993.61
2018-03-31T05:37:56.996Z,993.64
2018-03-31T05:38:56.947Z,993.63
2018-03-31T05:39:56.974Z,993.62
2018-03-31T05:40:56.915Z,993.61
2018-03-31T05:41:56.867Z,993.62
2018-03-31T05:42:56.891Z,993.59
2018-03-31T05:43:56.836Z,993.58
2018-03-31T05:44:56.805Z,993.63
2018-03-31T05:45:56.826Z,993.62
2018-03-31T05:46:56.755Z,993.61
2018-03-31T05:47:56.724Z,993.64
2018-03-31T05:48:56.734Z,993.67
2018-03-31T05:49:56.669Z,993.69
2018-03-31T05:50:56.645Z,993.70
2018-03-31T05:51:56.620Z,993.72
2018-03-31T05:52:56.589Z,993.73
2018-03-31T05:53:56.535Z,993.73
2018-03-31T05:54:56.509Z,993.72
2018-03-31T05:55:56.507Z,993.78
2018-03-31T05:56:56.490Z,993.80
2018-03-31T05:57:56.425Z,993.80
2018-03-31T05:58:56.425Z,993.80
2018-03-31T05:59:56.418Z,993.80
2018-03-31T06:00:56.339Z,993.82
2018-03-31T06:01:56.349Z,993.83
2018-03-31T06:02:56.286Z,993.83
2018-03-31T06:03:56.255Z,993.83
2018-03-31T06:04:56.260Z,993.84
2018-03-31T06:05:56.205Z,993.85
2018-03-31T06:06:56.177Z,993.87
2018-03-31T06:07:56.161Z,993.87
2018-03-31T06:08:56.121Z,993.88
2018-03-31T06:09:56.090Z,993.90
2018-03-31T06:10:56.069Z,993.92
2018-03-31T06:11:56.040Z,993.90
2018-03-31T06:12:56.019Z,993.90
2018-03-31T06:13:56.015Z,993.92
2018-03-31T06:14:55.988Z,993.89
2018-03-31T06:15:55.935Z,993.94
2018-03-31T06:16:55.931Z,993.99
2018-03-31T06:17:55.878Z,994.02
2018-03-31T06:18:55.848Z,994.05
2018-03-31T06:19:55.820Z,994.05
2018-03-31T06:20:55.798Z,994.06
2018-03-31T06:21:55.766Z,994.08
2018-03-31T06:22:55.770Z,994.08
2018-03-31T06:23:55.737Z,994.10
2018-03-31T06:24:55.685Z,994.14
2018-03-31T06:25:55.689Z,994.10
2018-03-31T06:26:55.630Z,994.11
2018-03-31T06:27:55.604Z,994.12
2018-03-31T06:28:55.609Z,994.14
2018-03-31T06:29:55.545Z,994.11
2018-03-31T06:30:55.521Z,994.13
2018-03-31T06:31:55.525Z,994.16
2018-03-31T06:32:55.491Z,994.17
2018-03-31T06:33:55.435Z,994.19
2018-03-31T06:34:55.444Z,994.19
2018-03-31T06:35:55.425Z,994.17
2018-03-31T06:36:55.357Z,994.19
2018-03-31T06:37:55.361Z,994.18
2018-03-31T06:38:55.329Z,994.17
2018-03-31T06:39:55.289Z,994.16
2018-03-31T06:40:55.283Z,994.17
2018-03-31T06:41:55.219Z,994.17
2018-03-31T06:42:55.188Z,994.18
2018-03-31T06:43:55.256Z,994.17
2018-03-31T06:44:55.170Z,994.20
2018-03-31T06:45:55.108Z,994.20
2018-03-31T06:46:55.090Z,994.16
2018-03-31T06:47:55.062Z,994.16
2018-03-31T06:48:55.038Z,994.17
2018-03-31T06:49:55.035Z,994.16
2018-03-31T06:50:54.974Z,994.15
2018-03-31T06:51:54.956Z,994.17
2018-03-31T06:52:54.955Z,994.15
2018-03-31T06:53:54.897Z,994.16
2018-03-31T06:54:54.874Z,994.15
2018-03-31T06:55:54.846Z,994.18
2018-03-31T06:56:54.806Z,994.17
2018-03-31T06:57:54.792Z,994.18
2018-03-31T06:58:54.761Z,994.19
2018-03-31T06:59:54.728Z,994.21
2018-03-31T07:00:54.710Z,994.23
2018-03-31T07:01:54.679Z,994.26
2018-03-31T07:02:54.647Z,994.25
2018-03-31T07:03:54.632Z,994.23
2018-03-31T07:04:54.594Z,994.25
2018-03-31T07:05:54.565Z,994.28
2018-03-31T07:06:54.541Z,994.31
2018-03-31T07:07:54.515Z,994.32
2018-03-31T07:08:54.485Z,994.31
2018-03-31T07:09:54.461Z,994.34
2018-03-31T07:10:54.433Z,994.33
2018-03-31T07:11:54.403Z,994.31
2018-03-31T07:12:54.382Z,994.32
2018-03-31T07:13:54.352Z,994.33
2018-03-31T07:14:54.330Z,994.34
2018-03-31T07:15:54.302Z,994.32
2018-03-31T07:16:54.277Z,994.36
2018-03-31T07:17:54.249Z,994.38
2018-03-31T07:18:54.210Z,994.35
2018-03-31T07:19:54.187Z,994.34
2018-03-31T07:20:54.167Z,994.34
2018-03-31T07:21:54.137Z,994.36
2018-03-31T07:22:54.111Z,994.37
2018-03-31T07:23:54.087Z,994.36
2018-03-31T07:24:54.052Z,994.34
2018-03-31T07:25:54.027Z,994.36
2018-03-31T07:26:54.020Z,994.31
2018-03-31T07:27:53.983Z,994.33
2018-03-31T07:28:53.953Z,994.37
2018-03-31T07:29:53.927Z,994.39
2018-03-31T07:30:53.893Z,994.37
2018-03-31T07:31:53.906Z,994.37
2018-03-31T07:32:53.975Z,994.34
2018-03-31T07:33:53.810Z,994.36
2018-03-31T07:34:53.799Z,994.33
2018-03-31T07:35:53.760Z,994.35
2018-03-31T07:36:53.820Z,994.38
2018-03-31T07:37:53.710Z,994.39
2018-03-31T07:38:53.682Z,994.39
2018-03-31T07:39:53.658Z,994.37
2018-03-31T07:40:53.625Z,994.40
2018-03-31T07:41:53.596Z,994.37
2018-03-31T07:42:53.577Z,994.41
2018-03-31T07:43:53.541Z,994.37
2018-03-31T07:44:53.522Z,994.33
2018-03-31T07:45:53.497Z,994.32
2018-03-31T07:46:53.471Z,994.34
2018-03-31T07:47:53.442Z,994.30
2018-03-31T07:48:53.410Z,994.26
2018-03-31T07:49:53.382Z,994.26
2018-03-31T07:50:53.361Z,994.24
2018-03-31T07:51:53.330Z,994.25
2018-03-31T07:52:53.317Z,994.24
2018-03-31T07:53:53.294Z,994.27
2018-03-31T07:54:53.251Z,994.22
2018-03-31T07:55:53.228Z,994.25
2018-03-31T07:56:53.208Z,994.21
2018-03-31T07:57:53.177Z,994.22
2018-03-31T07:58:53.143Z,994.26
2018-03-31T07:59:53.156Z,994.26
2018-03-31T08:00:53.113Z,994.28
2018-03-31T08:01:53.070Z,994.30
2018-03-31T08:02:53.043Z,994.29
2018-03-31T08:03:53.019Z,994.28
2018-03-31T08:04:52.990Z,994.34
2018-03-31T08:05:52.966Z,994.33
2018-03-31T08:06:52.952Z,994.33
2018-03-31T08:07:52.910Z,994.30
2018-03-31T08:08:52.883Z,994.30
2018-03-31T08:09:52.870Z,994.32
2018-03-31T08:10:52.835Z,994.31
2018-03-31T08:11:52.806Z,994.30
2018-03-31T08:12:52.791Z,994.30
2018-03-31T08:13:52.750Z,994.32
2018-03-31T08:14:52.734Z,994.30
2018-03-31T08:15:52.698Z,994.31
2018-03-31T08:16:53.848Z,994.35
2018-03-31T08:17:52.651Z,994.34
2018-03-31T08:18:52.627Z,994.37
2018-03-31T08:19:52.607Z,994.36
2018-03-31T08:20:54.560Z,994.35
2018-03-31T08:21:52.550Z,994.35
2018-03-31T08:22:52.517Z,994.38
2018-03-31T08:23:52.488Z,994.36
2018-03-31T08:24:52.471Z,994.36
2018-03-31T08:25:52.439Z,994.38
2018-03-31T08:26:52.417Z,994.38
2018-03-31T08:27:52.396Z,994.37
2018-03-31T08:28:52.369Z,994.36
2018-03-31T08:29:52.345Z,994.38
2018-03-31T08:30:52.317Z,994.37
2018-03-31T08:31:52.288Z,994.36
2018-03-31T08:32:52.262Z,994.38
2018-03-31T08:33:52.237Z,994.37
2018-03-31T08:34:52.206Z,994.38
2018-03-31T08:35:52.183Z,994.38
2018-03-31T08:36:52.335Z,994.36
2018-03-31T08:37:52.132Z,994.35
2018-03-31T08:38:52.112Z,994.39
2018-03-31T08:39:52.081Z,994.35
2018-03-31T08:40:52.062Z,994.38
2018-03-31T08:41:52.028Z,994.38
2018-03-31T08:42:52.007Z,994.37
2018-03-31T08:43:51.986Z,994.36
2018-03-31T08:44:51.952Z,994.36
2018-03-31T08:45:51.928Z,994.36
2018-03-31T08:46:51.895Z,994.38
2018-03-31T08:47:51.868Z,994.38
2018-03-31T08:48:51.850Z,994.38
2018-03-31T08:49:51.828Z,994.37
2018-03-31T08:50:51.796Z,994.36
2018-03-31T08:51:51.774Z,994.35
2018-03-31T08:52:51.740Z,994.40
2018-03-31T08:53:51.747Z,994.36
2018-03-31T08:54:52.040Z,994.38
2018-03-31T08:55:51.671Z,994.38
2018-03-31T08:56:51.637Z,994.36
2018-03-31T08:57:51.619Z,994.40
2018-03-31T08:58:51.584Z,994.40
2018-03-31T08:59:51.557Z,994.41
2018-03-31T09:00:51.540Z,994.37
2018-03-31T09:01:52.960Z,994.36
2018-03-31T09:02:51.490Z,994.35
2018-03-31T09:03:51.504Z,994.38
2018-03-31T09:04:51.437Z,994.36
2018-03-31T09:05:51.407Z,994.37
2018-03-31T09:06:51.384Z,994.37
2018-03-31T09:07:51.352Z,994.40
2018-03-31T09:08:51.329Z,994.36
2018-03-31T09:09:51.307Z,994.37
2018-03-31T09:10:51.277Z,994.36
2018-03-31T09:11:51.268Z,994.36
2018-03-31T09:12:51.225Z,994.35
2018-03-31T09:13:51.198Z,994.31
2018-03-31T09:14:51.178Z,994.35
2018-03-31T09:15:51.155Z,994.35
2018-03-31T09:16:51.123Z,994.37
2018-03-31T09:17:51.102Z,994.34
2018-03-31T09:18:51.370Z,994.40
2018-03-31T09:19:51.050Z,994.40
2018-03-31T09:20:51.022Z,994.43
2018-03-31T09:21:50.994Z,994.41
2018-03-31T09:22:50.968Z,994.43
2018-03-31T09:23:50.940Z,994.48
2018-03-31T09:24:50.937Z,994.46
2018-03-31T09:25:50.903Z,994.48
2018-03-31T09:26:50.923Z,994.48
2018-03-31T09:27:51.025Z,994.48
2018-03-31T09:28:51.795Z,994.50
2018-03-31T09:29:50.788Z,994.49
2018-03-31T09:30:50.767Z,994.54
2018-03-31T09:31:53.829Z,994.54
2018-03-31T09:32:50.720Z,994.51
2018-03-31T09:33:50.733Z,994.55
2018-03-31T09:34:50.744Z,994.53
2018-03-31T09:35:50.640Z,994.53
2018-03-31T09:36:50.614Z,994.54
2018-03-31T09:37:50.584Z,994.51
2018-03-31T09:38:50.558Z,994.53
2018-03-31T09:39:50.540Z,994.52
2018-03-31T09:40:50.510Z,994.53
2018-03-31T09:41:51.365Z,994.58
2018-03-31T09:42:50.458Z,994.58
2018-03-31T09:43:50.433Z,994.55
2018-03-31T09:44:50.407Z,994.57
2018-03-31T09:45:50.381Z,994.54
2018-03-31T09:46:50.402Z,994.56
2018-03-31T09:47:50.330Z,994.54
2018-03-31T09:48:50.307Z,994.54
2018-03-31T09:49:50.288Z,994.55
2018-03-31T09:50:50.250Z,994.59
2018-03-31T09:51:50.227Z,994.57
2018-03-31T09:52:50.206Z,994.61
2018-03-31T09:53:50.180Z,994.58
2018-03-31T09:54:50.163Z,994.57
2018-03-31T09:55:50.123Z,994.55
2018-03-31T09:56:50.117Z,994.52
2018-03-31T09:57:50.086Z,994.53
2018-03-31T09:58:50.056Z,994.51
2018-03-31T09:59:50.026Z,994.52
2018-03-31T10:00:50.005Z,994.51
2018-03-31T10:01:49.983Z,994.49
2018-03-31T10:02:49.952Z,994.50
2018-03-31T10:03:49.931Z,994.48
2018-03-31T10:04:49.951Z,994.50
2018-03-31T10:05:49.873Z,994.49
2018-03-31T10:06:49.856Z,994.50
2018-03-31T10:07:49.841Z,994.50
2018-03-31T10:08:49.805Z,994.52
2018-03-31T10:09:49.772Z,994.44
2018-03-31T10:10:49.749Z,994.49
2018-03-31T10:11:49.730Z,994.49
2018-03-31T10:12:49.707Z,994.50
2018-03-31T10:13:49.682Z,994.48
2018-03-31T10:14:49.649Z,994.48
2018-03-31T10:15:49.624Z,994.54
2018-03-31T10:16:49.603Z,994.52
2018-03-31T10:17:49.580Z,994.53
2018-03-31T10:18:49.546Z,994.56
2018-03-31T10:19:49.537Z,994.54
2018-03-31T10:20:49.495Z,994.56
2018-03-31T10:21:49.473Z,994.54
2018-03-31T10:22:49.505Z,994.55
2018-03-31T10:23:49.427Z,994.55
2018-03-31T10:24:49.410Z,994.57
2018-03-31T10:25:49.372Z,994.57
2018-03-31T10:26:49.364Z,994.56
2018-03-31T10:27:49.319Z,994.60
2018-03-31T10:28:49.303Z,994.54
2018-03-31T10:29:49.268Z,994.57
2018-03-31T10:30:49.250Z,994.61
2018-03-31T10:31:49.293Z,994.58
2018-03-31T10:32:49.194Z,994.56
2018-03-31T10:33:49.177Z,994.66
2018-03-31T10:34:49.153Z,994.61
2018-03-31T10:35:49.126Z,994.59
2018-03-31T10:36:49.100Z,994.61
2018-03-31T10:37:49.117Z,994.65
2018-03-31T10:38:49.070Z,994.65
2018-03-31T10:39:49.022Z,994.64
2018-03-31T10:40:49.022Z,994.67
2018-03-31T10:41:48.982Z,994.74
2018-03-31T10:42:48.941Z,994.65
2018-03-31T10:43:48.961Z,994.69
2018-03-31T10:44:48.893Z,994.68
2018-03-31T10:45:48.866Z,994.66
2018-03-31T10:46:48.845Z,994.67
2018-03-31T10:47:48.814Z,994.71
2018-03-31T10:48:48.800Z,994.65
2018-03-31T10:49:48.770Z,994.65
2018-03-31T10:50:48.750Z,994.64
2018-03-31T10:51:48.724Z,994.68
2018-03-31T10:52:48.717Z,994.68
2018-03-31T10:53:48.803Z,994.63
2018-03-31T10:54:48.647Z,994.64
2018-03-31T10:55:48.617Z,994.69
2018-03-31T10:56:48.594Z,994.74
2018-03-31T10:57:48.567Z,994.71
2018-03-31T10:58:48.538Z,994.72
2018-03-31T10:59:48.522Z,994.77
2018-03-31T11:00:48.493Z,994.72
2018-03-31T11:01:48.508Z,994.75
2018-03-31T11:02:48.445Z,994.77
2018-03-31T11:03:48.414Z,994.78
2018-03-31T11:04:48.399Z,994.70
2018-03-31T11:05:48.365Z,994.74
2018-03-31T11:06:48.343Z,994.73
2018-03-31T11:07:48.318Z,994.72
2018-03-31T11:08:48.297Z,994.74
2018-03-31T11:09:48.272Z,994.70
2018-03-31T11:10:49.140Z,994.71
2018-03-31T11:11:48.221Z,994.75
2018-03-31T11:12:48.210Z,994.70
2018-03-31T11:13:48.173Z,994.69
2018-03-31T11:14:48.147Z,994.72
2018-03-31T11:15:48.135Z,994.73
2018-03-31T11:16:48.095Z,994.72
2018-03-31T11:17:48.067Z,994.71
2018-03-31T11:18:48.063Z,994.75
2018-03-31T11:19:48.037Z,994.71
2018-03-31T11:20:47.998Z,994.73
2018-03-31T11:21:47.971Z,994.71
2018-03-31T11:22:47.958Z,994.69
2018-03-31T11:23:47.917Z,994.75
2018-03-31T11:24:47.895Z,994.73
2018-03-31T11:25:47.876Z,994.74
2018-03-31T11:26:47.843Z,994.69
2018-03-31T11:27:47.821Z,994.69
2018-03-31T11:28:47.816Z,994.70
2018-03-31T11:29:47.777Z,994.70
2018-03-31T11:30:47.742Z,994.70
2018-03-31T11:31:47.729Z,994.75
2018-03-31T11:32:47.696Z,994.74
2018-03-31T11:33:47.684Z,994.73
2018-03-31T11:34:47.653Z,994.76
2018-03-31T11:35:47.624Z,994.75
2018-03-31T11:36:47.600Z,994.74
2018-03-31T11:37:47.582Z,994.76
2018-03-31T11:38:47.550Z,994.74
2018-03-31T11:39:47.525Z,994.76
2018-03-31T11:40:47.513Z,994.70
2018-03-31T11:41:47.481Z,994.69
2018-03-31T11:42:47.452Z,994.68
2018-03-31T11:43:47.437Z,994.76
2018-03-31T11:44:47.404Z,994.68
2018-03-31T11:45:47.439Z,994.64
2018-03-31T11:46:47.358Z,994.67
2018-03-31T11:47:47.331Z,994.64
2018-03-31T11:48:47.305Z,994.66
2018-03-31T11:49:47.283Z,994.63
2018-03-31T11:50:47.257Z,994.65
2018-03-31T11:51:47.230Z,994.64
2018-03-31T11:52:47.209Z,994.59
2018-03-31T11:53:47.190Z,994.60
2018-03-31T11:54:47.172Z,994.61
2018-03-31T11:55:47.136Z,994.58
2018-03-31T11:56:47.115Z,994.58
2018-03-31T11:57:47.090Z,994.62
2018-03-31T11:58:47.064Z,994.63
2018-03-31T11:59:47.042Z,994.61
2018-03-31T12:00:47.013Z,994.60
2018-03-31T12:01:46.994Z,994.55
2018-03-31T12:02:46.971Z,994.58
2018-03-31T12:03:46.952Z,994.58
2018-03-31T12:04:46.921Z,994.59
2018-03-31T12:05:46.910Z,994.57
2018-03-31T12:06:46.909Z,994.60
2018-03-31T12:07:46.842Z,994.60
2018-03-31T12:08:46.828Z,994.59
2018-03-31T12:09:46.872Z,994.55
2018-03-31T12:10:46.773Z,994.57
2018-03-31T12:11:46.757Z,994.61
2018-03-31T12:12:46.726Z,994.53
2018-03-31T12:13:46.702Z,994.60
2018-03-31T12:14:46.674Z,994.60
2018-03-31T12:15:46.654Z,994.57
2018-03-31T12:16:46.634Z,994.59
2018-03-31T12:17:46.616Z,994.56
2018-03-31T12:18:46.572Z,994.63
2018-03-31T12:19:46.565Z,994.64
2018-03-31T12:20:46.533Z,994.59
2018-03-31T12:21:46.498Z,994.57
2018-03-31T12:22:46.479Z,994.51
2018-03-31T12:23:46.450Z,994.54
2018-03-31T12:24:46.432Z,994.49
2018-03-31T12:25:46.414Z,994.50
2018-03-31T12:26:46.384Z,994.47
2018-03-31T12:27:46.366Z,994.51
2018-03-31T12:28:46.393Z,994.49